createdAt,value
2018-09-20T00:00:13.145Z,17.90
2018-09-20T00:01:13.098Z,17.97
2018-09-20T00:02:13.056Z,17.88
2018-09-20T00:03:13.013Z,17.94
2018-09-20T00:04:12.972Z,17.88
2018-09-20T00:05:12.927Z,17.90
2018-09-20T00:06:13.009Z,17.87
2018-09-20T00:07:12.881Z,17.79
2018-09-20T00:08:12.885Z,17.87
2018-09-20T00:09:12.774Z,17.86
2018-09-20T00:10:12.763Z,17.82
2018-09-20T00:11:12.761Z,17.79
2018-09-20T00:12:12.641Z,17.80
2018-09-20T00:13:12.642Z,17.78
2018-09-20T00:14:12.640Z,17.82
2018-09-20T00:15:12.520Z,17.78
2018-09-20T00:16:12.520Z,17.73
2018-09-20T00:17:12.521Z,17.86
2018-09-20T00:18:12.401Z,17.73
2018-09-20T00:19:12.400Z,17.79
2018-09-20T00:20:12.398Z,17.79
2018-09-20T00:21:12.279Z,17.78
2018-09-20T00:22:12.277Z,17.76
2018-09-20T00:23:12.162Z,17.79
2018-09-20T00:24:12.163Z,17.79
2018-09-20T00:25:12.161Z,17.73
2018-09-20T00:26:12.036Z,17.75
2018-09-20T00:27:12.037Z,17.72
2018-09-20T00:28:12.037Z,17.73
2018-09-20T00:29:11.919Z,17.73
2018-09-20T00:30:11.919Z,17.72
2018-09-20T00:31:11.930Z,17.72
2018-09-20T00:32:11.797Z,17.72
2018-09-20T00:33:11.799Z,17.76
2018-09-20T00:34:11.796Z,17.68
2018-09-20T00:35:11.678Z,17.69
2018-09-20T00:36:11.678Z,17.68
2018-09-20T00:37:11.672Z,17.68
2018-09-20T00:38:11.555Z,17.71
2018-09-20T00:39:11.563Z,17.60
2018-09-20T00:40:11.436Z,17.63
2018-09-20T00:41:11.436Z,17.68
2018-09-20T00:42:11.435Z,17.71
2018-09-20T00:43:11.317Z,17.71
2018-09-20T00:44:11.315Z,17.65
2018-09-20T00:45:11.314Z,17.57
2018-09-20T00:46:11.195Z,17.59
2018-09-20T00:47:11.198Z,17.72
2018-09-20T00:48:11.194Z,17.56
2018-09-20T00:49:11.071Z,17.57
2018-09-20T00:50:11.072Z,17.60
2018-09-20T00:51:11.072Z,17.57
2018-09-20T00:52:10.953Z,17.56
2018-09-20T00:53:10.954Z,17.53
2018-09-20T00:54:10.831Z,17.56
2018-09-20T00:55:10.831Z,17.53
2018-09-20T00:56:10.832Z,17.42
2018-09-20T00:57:10.713Z,17.46
2018-09-20T00:58:10.718Z,17.49
2018-09-20T00:59:10.711Z,17.47
2018-09-20T01:00:10.591Z,17.50
2018-09-20T01:01:10.591Z,17.46
2018-09-20T01:02:10.591Z,17.49
2018-09-20T01:03:10.470Z,17.46
2018-09-20T01:04:10.471Z,17.47
2018-09-20T01:05:10.471Z,17.42
2018-09-20T01:06:10.350Z,17.52
2018-09-20T01:07:10.349Z,17.42
2018-09-20T01:08:10.310Z,17.44
2018-09-20T01:09:10.228Z,17.42
2018-09-20T01:10:10.227Z,17.35
2018-09-20T01:11:10.108Z,17.41
2018-09-20T01:12:10.107Z,17.38
2018-09-20T01:13:10.115Z,17.42
2018-09-20T01:14:09.987Z,17.41
2018-09-20T01:15:09.987Z,17.42
2018-09-20T01:16:09.986Z,17.31
2018-09-20T01:17:09.870Z,17.30
2018-09-20T01:18:09.869Z,17.24
2018-09-20T01:19:09.865Z,17.34
2018-09-20T01:20:09.745Z,17.28
2018-09-20T01:21:09.746Z,17.24
2018-09-20T01:22:09.744Z,17.27
2018-09-20T01:23:09.627Z,17.31
2018-09-20T01:24:09.629Z,17.34
2018-09-20T01:25:09.508Z,17.28
2018-09-20T01:26:09.504Z,17.28
2018-09-20T01:27:09.503Z,17.37
2018-09-20T01:28:09.382Z,17.23
2018-09-20T01:29:09.385Z,17.28
2018-09-20T01:30:09.384Z,17.30
2018-09-20T01:31:09.264Z,17.30
2018-09-20T01:32:09.268Z,17.35
2018-09-20T01:33:09.263Z,17.31
2018-09-20T01:34:09.143Z,17.23
2018-09-20T01:35:09.141Z,17.32
2018-09-20T01:36:09.142Z,17.22
2018-09-20T01:37:09.024Z,17.31
2018-09-20T01:38:09.022Z,17.32
2018-09-20T01:39:08.901Z,17.31
2018-09-20T01:40:08.901Z,17.27
2018-09-20T01:41:08.902Z,17.17
2018-09-20T01:42:08.784Z,17.28
2018-09-20T01:43:08.785Z,17.23
2018-09-20T01:44:08.782Z,17.24
2018-09-20T01:45:08.659Z,17.30
2018-09-20T01:46:08.661Z,17.31
2018-09-20T01:47:08.664Z,17.28
2018-09-20T01:48:08.539Z,17.23
2018-09-20T01:49:08.544Z,17.27
2018-09-20T01:50:08.541Z,17.30
2018-09-20T01:51:08.418Z,17.27
2018-09-20T01:52:08.423Z,17.27
2018-09-20T01:53:08.302Z,17.20
2018-09-20T01:54:08.300Z,17.30
2018-09-20T01:55:08.298Z,17.30
2018-09-20T01:56:08.178Z,17.22
2018-09-20T01:57:08.180Z,17.23
2018-09-20T01:58:08.179Z,17.22
2018-09-20T01:59:08.056Z,17.23
2018-09-20T02:00:08.061Z,17.19
2018-09-20T02:01:08.057Z,17.19
2018-09-20T02:02:07.934Z,17.13
2018-09-20T02:03:07.936Z,17.16
2018-09-20T02:04:07.936Z,17.13
2018-09-20T02:05:07.817Z,17.13
2018-09-20T02:06:07.817Z,17.17
2018-09-20T02:07:07.783Z,17.17
2018-09-20T02:08:07.697Z,17.16
2018-09-20T02:09:07.703Z,17.16
2018-09-20T02:10:07.584Z,17.14
2018-09-20T02:11:07.578Z,17.16
2018-09-20T02:12:07.577Z,17.20
2018-09-20T02:13:07.458Z,17.13
2018-09-20T02:14:07.456Z,17.14
2018-09-20T02:15:07.456Z,17.19
2018-09-20T02:16:07.334Z,17.14
2018-09-20T02:17:07.336Z,17.16
2018-09-20T02:18:07.331Z,17.12
2018-09-20T02:19:07.213Z,17.16
2018-09-20T02:20:07.212Z,17.10
2018-09-20T02:21:07.177Z,17.16
2018-09-20T02:22:07.092Z,17.12
2018-09-20T02:23:07.092Z,17.13
2018-09-20T02:24:06.972Z,17.10
2018-09-20T02:25:06.970Z,17.10
2018-09-20T02:26:06.972Z,17.14
2018-09-20T02:27:06.859Z,17.17
2018-09-20T02:28:06.849Z,17.07
2018-09-20T02:29:06.851Z,17.05
2018-09-20T02:30:06.734Z,17.09
2018-09-20T02:31:06.733Z,17.13
2018-09-20T02:32:06.730Z,17.07
2018-09-20T02:33:06.611Z,17.12
2018-09-20T02:34:06.611Z,17.02
2018-09-20T02:35:06.613Z,17.05
2018-09-20T02:36:06.494Z,17.10
2018-09-20T02:37:06.490Z,17.05
2018-09-20T02:38:06.385Z,17.14
2018-09-20T02:39:06.387Z,17.10
2018-09-20T02:40:06.367Z,17.14
2018-09-20T02:41:06.249Z,16.97
2018-09-20T02:42:06.248Z,17.02
2018-09-20T02:43:06.251Z,16.94
2018-09-20T02:44:06.134Z,16.99
2018-09-20T02:45:06.128Z,16.99
2018-09-20T02:46:06.143Z,16.92
2018-09-20T02:47:06.008Z,16.98
2018-09-20T02:48:06.007Z,17.02
2018-09-20T02:49:05.970Z,16.99
2018-09-20T02:50:05.891Z,17.01
2018-09-20T02:51:05.890Z,17.04
2018-09-20T02:52:05.767Z,16.99
2018-09-20T02:53:05.766Z,16.89
2018-09-20T02:54:05.766Z,16.99
2018-09-20T02:55:05.645Z,16.92
2018-09-20T02:56:05.644Z,16.89
2018-09-20T02:57:05.646Z,16.92
2018-09-20T02:58:05.525Z,16.95
2018-09-20T02:59:05.642Z,16.86
2018-09-20T03:00:05.527Z,16.91
2018-09-20T03:01:05.409Z,16.87
2018-09-20T03:02:05.403Z,16.94
2018-09-20T03:03:05.367Z,16.91
2018-09-20T03:04:05.285Z,16.87
2018-09-20T03:05:05.286Z,16.94
2018-09-20T03:06:05.163Z,16.91
2018-09-20T03:07:05.162Z,16.89
2018-09-20T03:08:05.170Z,16.89
2018-09-20T03:09:05.042Z,16.83
2018-09-20T03:10:05.042Z,16.94
2018-09-20T03:11:05.041Z,16.92
2018-09-20T03:12:04.921Z,16.92
2018-09-20T03:13:04.922Z,16.92
2018-09-20T03:14:04.925Z,16.86
2018-09-20T03:15:04.811Z,16.80
2018-09-20T03:16:04.802Z,16.86
2018-09-20T03:17:04.762Z,16.86
2018-09-20T03:18:04.681Z,16.84
2018-09-20T03:19:04.680Z,16.86
2018-09-20T03:20:04.562Z,16.84
2018-09-20T03:21:04.563Z,16.86
2018-09-20T03:22:04.559Z,16.89
2018-09-20T03:23:04.442Z,16.94
2018-09-20T03:24:04.441Z,16.86
2018-09-20T03:25:04.444Z,16.84
2018-09-20T03:26:04.319Z,16.84
2018-09-20T03:27:04.317Z,16.95
2018-09-20T03:28:04.317Z,16.89
2018-09-20T03:29:04.201Z,16.87
2018-09-20T03:30:04.200Z,16.87
2018-09-20T03:31:04.078Z,16.89
2018-09-20T03:32:04.077Z,16.89
2018-09-20T03:33:04.079Z,16.87
2018-09-20T03:34:03.956Z,16.94
2018-09-20T03:35:03.963Z,16.94
2018-09-20T03:36:03.958Z,16.95
2018-09-20T03:37:03.836Z,16.92
2018-09-20T03:38:03.835Z,16.86
2018-09-20T03:39:03.837Z,16.87
2018-09-20T03:40:03.719Z,16.95
2018-09-20T03:41:03.721Z,16.87
2018-09-20T03:42:03.717Z,16.94
2018-09-20T03:43:03.596Z,16.89
2018-09-20T03:44:03.593Z,16.91
2018-09-20T03:45:03.476Z,16.87
2018-09-20T03:46:03.472Z,16.94
2018-09-20T03:47:03.477Z,16.84
2018-09-20T03:48:03.355Z,16.87
2018-09-20T03:49:03.353Z,16.87
2018-09-20T03:50:03.353Z,16.87
2018-09-20T03:51:03.232Z,16.92
2018-09-20T03:52:03.233Z,16.87
2018-09-20T03:53:03.231Z,16.83
2018-09-20T03:54:03.113Z,16.89
2018-09-20T03:55:03.112Z,16.92
2018-09-20T03:56:03.112Z,16.89
2018-09-20T03:57:02.999Z,16.86
2018-09-20T03:58:02.991Z,16.89
2018-09-20T03:59:02.953Z,16.91
2018-09-20T04:00:02.870Z,16.86
2018-09-20T04:01:02.873Z,16.94
2018-09-20T04:02:02.750Z,16.92
2018-09-20T04:03:02.752Z,16.87
2018-09-20T04:04:02.748Z,16.94
2018-09-20T04:05:02.629Z,16.97
2018-09-20T04:06:02.633Z,16.89
2018-09-20T04:07:02.630Z,16.94
2018-09-20T04:08:02.526Z,16.91
2018-09-20T04:09:02.537Z,16.86
2018-09-20T04:10:02.523Z,16.97
2018-09-20T04:11:02.391Z,16.97
2018-09-20T04:12:02.389Z,16.86
2018-09-20T04:13:02.270Z,16.87
2018-09-20T04:14:02.268Z,16.97
2018-09-20T04:15:02.270Z,16.92
2018-09-20T04:16:02.164Z,16.97
2018-09-20T04:17:02.147Z,16.91
2018-09-20T04:18:02.151Z,16.89
2018-09-20T04:19:02.036Z,16.84
2018-09-20T04:20:02.031Z,16.92
2018-09-20T04:21:02.030Z,16.98
2018-09-20T04:22:01.910Z,16.99
2018-09-20T04:23:01.911Z,16.98
2018-09-20T04:24:01.872Z,16.95
2018-09-20T04:25:01.788Z,16.91
2018-09-20T04:26:01.794Z,16.92
2018-09-20T04:27:01.667Z,16.97
2018-09-20T04:28:01.666Z,16.98
2018-09-20T04:29:01.667Z,17.02
2018-09-20T04:30:01.544Z,16.98
2018-09-20T04:31:01.545Z,16.98
2018-09-20T04:32:01.544Z,17.01
2018-09-20T04:33:01.423Z,16.98
2018-09-20T04:34:01.428Z,17.02
2018-09-20T04:35:01.422Z,17.02
2018-09-20T04:36:01.306Z,16.98
2018-09-20T04:37:01.310Z,17.01
2018-09-20T04:38:01.264Z,17.01
2018-09-20T04:39:01.183Z,17.01
2018-09-20T04:40:01.189Z,16.99
2018-09-20T04:41:01.068Z,16.98
2018-09-20T04:42:01.065Z,17.01
2018-09-20T04:43:01.063Z,17.09
2018-09-20T04:44:00.944Z,17.01
2018-09-20T04:45:00.941Z,16.99
2018-09-20T04:46:00.941Z,16.99
2018-09-20T04:47:00.825Z,16.99
2018-09-20T04:48:00.827Z,16.89
2018-09-20T04:49:00.821Z,16.91
2018-09-20T04:50:00.701Z,16.99
2018-09-20T04:51:00.705Z,16.91
2018-09-20T04:52:00.662Z,16.92
2018-09-20T04:53:00.585Z,16.87
2018-09-20T04:54:00.580Z,16.97
2018-09-20T04:55:00.459Z,17.01
2018-09-20T04:56:00.459Z,16.89
2018-09-20T04:57:00.462Z,16.99
2018-09-20T04:58:00.340Z,16.91
2018-09-20T04:59:00.339Z,16.95
2018-09-20T05:00:00.418Z,16.92
2018-09-20T05:01:00.223Z,16.87
2018-09-20T05:02:00.219Z,16.91
2018-09-20T05:03:00.216Z,16.84
2018-09-20T05:04:00.100Z,16.91
2018-09-20T05:05:00.101Z,16.98
2018-09-20T05:06:00.061Z,16.92
2018-09-20T05:06:59.978Z,16.91
2018-09-20T05:07:59.977Z,16.92
2018-09-20T05:08:59.857Z,16.91
2018-09-20T05:09:59.858Z,16.97
2018-09-20T05:10:59.856Z,16.84
2018-09-20T05:11:59.738Z,16.92
2018-09-20T05:12:59.734Z,16.87
2018-09-20T05:13:59.745Z,16.87
2018-09-20T05:14:59.619Z,16.92
2018-09-20T05:15:59.614Z,16.89
2018-09-20T05:16:59.627Z,16.92
2018-09-20T05:17:59.503Z,16.98
2018-09-20T05:18:59.494Z,16.84
2018-09-20T05:19:59.377Z,16.97
2018-09-20T05:20:59.373Z,16.92
2018-09-20T05:21:59.375Z,16.87
2018-09-20T05:22:59.257Z,16.91
2018-09-20T05:23:59.253Z,16.95
2018-09-20T05:24:59.251Z,16.87
2018-09-20T05:25:59.136Z,16.89
2018-09-20T05:26:59.139Z,16.86
2018-09-20T05:27:59.131Z,16.97
2018-09-20T05:28:59.012Z,16.94
2018-09-20T05:29:59.011Z,17.05
2018-09-20T05:30:59.011Z,16.99
2018-09-20T05:31:58.894Z,16.98
2018-09-20T05:32:58.891Z,16.97
2018-09-20T05:33:58.769Z,16.92
2018-09-20T05:34:58.770Z,17.01
2018-09-20T05:35:58.768Z,17.05
2018-09-20T05:36:58.668Z,17.09
2018-09-20T05:37:58.654Z,17.07
2018-09-20T05:38:58.650Z,17.14
2018-09-20T05:39:58.530Z,17.07
2018-09-20T05:40:58.528Z,17.09
2018-09-20T05:41:58.529Z,17.10
2018-09-20T05:42:58.407Z,17.07
2018-09-20T05:43:58.412Z,17.12
2018-09-20T05:44:58.419Z,17.07
2018-09-20T05:45:58.288Z,17.05
2018-09-20T05:46:58.288Z,17.14
2018-09-20T05:47:58.170Z,17.14
2018-09-20T05:48:58.173Z,17.10
2018-09-20T05:49:58.167Z,17.14
2018-09-20T05:50:58.045Z,17.16
2018-09-20T05:51:58.048Z,17.17
2018-09-20T05:52:58.048Z,17.19
2018-09-20T05:53:57.925Z,17.17
2018-09-20T05:54:57.926Z,17.28
2018-09-20T05:55:57.926Z,17.22
2018-09-20T05:56:57.805Z,17.24
2018-09-20T05:57:57.805Z,17.27
2018-09-20T05:58:57.804Z,17.24
2018-09-20T05:59:57.685Z,17.37
2018-09-20T06:00:57.689Z,17.28
2018-09-20T06:01:57.569Z,17.32
2018-09-20T06:02:57.567Z,17.39
2018-09-20T06:03:57.564Z,17.31
2018-09-20T06:04:57.443Z,17.34
2018-09-20T06:05:57.525Z,17.31
2018-09-20T06:06:57.446Z,17.32
2018-09-20T06:07:57.326Z,17.31
2018-09-20T06:08:57.325Z,17.37
2018-09-20T06:09:57.326Z,17.41
2018-09-20T06:10:57.203Z,17.41
2018-09-20T06:11:57.202Z,17.34
2018-09-20T06:12:57.164Z,17.46
2018-09-20T06:13:57.082Z,17.50
2018-09-20T06:14:57.086Z,17.49
2018-09-20T06:15:56.961Z,17.42
2018-09-20T06:16:56.961Z,17.49
2018-09-20T06:17:56.962Z,17.54
2018-09-20T06:18:56.840Z,17.56
2018-09-20T06:19:56.844Z,17.59
2018-09-20T06:20:56.844Z,17.65
2018-09-20T06:21:56.773Z,17.72
2018-09-20T06:22:56.720Z,17.69
2018-09-20T06:23:56.725Z,17.78
2018-09-20T06:24:56.599Z,17.78
2018-09-20T06:25:56.599Z,17.84
2018-09-20T06:26:56.604Z,17.87
2018-09-20T06:27:56.479Z,17.93
2018-09-20T06:28:56.482Z,18.00
2018-09-20T06:29:56.359Z,18.06
2018-09-20T06:30:56.361Z,18.05
2018-09-20T06:31:56.363Z,18.11
2018-09-20T06:32:56.237Z,18.11
2018-09-20T06:33:56.237Z,18.24
2018-09-20T06:34:56.368Z,18.28
2018-09-20T06:35:56.119Z,18.28
2018-09-20T06:36:56.147Z,18.28
2018-09-20T06:37:56.117Z,18.43
2018-09-20T06:38:55.996Z,18.43
2018-09-20T06:39:56.000Z,18.55
2018-09-20T06:40:56.033Z,18.57
2018-09-20T06:41:55.875Z,18.63
2018-09-20T06:42:55.875Z,18.76
2018-09-20T06:43:55.837Z,18.78
2018-09-20T06:44:56.581Z,18.85
2018-09-20T06:45:55.757Z,18.81
2018-09-20T06:46:55.638Z,18.86
2018-09-20T06:47:55.643Z,18.96
2018-09-20T06:48:55.633Z,18.94
2018-09-20T06:49:55.717Z,19.12
2018-09-20T06:50:55.513Z,19.20
2018-09-20T06:51:55.516Z,19.30
2018-09-20T06:52:55.392Z,19.41
2018-09-20T06:54:57.796Z,19.67
2018-09-20T06:55:57.793Z,19.78
2018-09-20T06:56:57.800Z,19.97
2018-09-20T06:57:57.674Z,20.11
2018-09-20T06:58:57.672Z,20.22
2018-09-20T06:59:57.674Z,20.33
2018-09-20T07:00:57.552Z,20.42
2018-09-20T07:01:57.553Z,20.48
2018-09-20T07:02:57.633Z,20.63
2018-09-20T07:03:57.433Z,20.73
2018-09-20T07:04:57.431Z,20.83
2018-09-20T07:05:57.430Z,20.85
2018-09-20T07:06:57.318Z,21.01
2018-09-20T07:07:57.313Z,21.08
2018-09-20T07:08:57.271Z,21.14
2018-09-20T07:09:57.192Z,21.26
2018-09-20T07:10:57.194Z,21.38
2018-09-20T07:11:57.151Z,21.41
2018-09-20T07:12:57.071Z,21.50
2018-09-20T07:13:57.070Z,21.60
2018-09-20T07:14:56.950Z,21.63
2018-09-20T07:15:56.957Z,21.66
2018-09-20T07:16:56.949Z,21.80
2018-09-20T07:17:56.834Z,22.00
2018-09-20T07:18:56.827Z,22.06
2018-09-20T07:19:56.827Z,22.10
2018-09-20T07:20:56.709Z,22.23
2018-09-20T07:21:56.711Z,22.28
2018-09-20T07:22:56.707Z,22.40
2018-09-20T07:23:56.587Z,22.30
2018-09-20T07:24:56.589Z,22.49
2018-09-20T07:25:56.587Z,22.55
2018-09-20T07:26:56.471Z,22.68
2018-09-20T07:27:56.467Z,22.67
2018-09-20T07:28:56.468Z,22.58
2018-09-20T07:29:56.352Z,22.62
2018-09-20T07:30:56.345Z,22.96
2018-09-20T07:31:56.348Z,23.02
2018-09-20T07:32:56.223Z,23.21
2018-09-20T07:33:56.224Z,23.37
2018-09-20T07:34:56.226Z,23.55
2018-09-20T07:35:56.107Z,23.66
2018-09-20T07:36:56.106Z,23.82
2018-09-20T07:37:56.104Z,23.94
2018-09-20T07:38:55.982Z,24.11
2018-09-20T07:39:55.981Z,24.24
2018-09-20T07:40:55.983Z,24.32
2018-09-20T07:41:55.864Z,24.31
2018-09-20T07:42:55.861Z,24.50
2018-09-20T07:43:55.865Z,24.65
2018-09-20T07:44:55.743Z,24.63
2018-09-20T07:45:55.744Z,24.74
2018-09-20T07:46:55.743Z,24.71
2018-09-20T07:47:55.624Z,24.66
2018-09-20T07:48:55.621Z,24.85
2018-09-20T07:49:55.622Z,24.92
2018-09-20T07:50:55.499Z,24.94
2018-09-20T07:51:55.499Z,24.78
2018-09-20T07:52:55.500Z,24.78
2018-09-20T07:53:55.383Z,24.85
2018-09-20T07:54:55.378Z,24.89
2018-09-20T07:55:55.381Z,24.65
2018-09-20T07:56:55.259Z,24.66
2018-09-20T07:57:55.257Z,24.71
2018-09-20T07:58:55.263Z,24.66
2018-09-20T07:59:55.141Z,24.62
2018-09-20T08:00:55.141Z,24.66
2018-09-20T08:01:55.158Z,24.82
2018-09-20T08:02:57.019Z,24.84
2018-09-20T08:03:55.025Z,24.86
2018-09-20T08:04:55.019Z,24.96
2018-09-20T08:05:54.896Z,25.04
2018-09-20T08:06:54.896Z,25.00
2018-09-20T08:07:54.895Z,25.06
2018-09-20T08:08:54.776Z,25.01
2018-09-20T08:09:54.778Z,24.94
2018-09-20T08:10:54.777Z,25.03
2018-09-20T08:11:54.654Z,25.04
2018-09-20T08:12:54.721Z,25.07
2018-09-20T08:13:54.655Z,25.12
2018-09-20T08:14:54.533Z,25.09
2018-09-20T08:15:54.537Z,25.21
2018-09-20T08:16:54.537Z,25.26
2018-09-20T08:17:54.416Z,25.34
2018-09-20T08:18:54.413Z,25.39
2018-09-20T08:19:54.419Z,25.40
2018-09-20T08:20:54.292Z,25.46
2018-09-20T08:21:54.291Z,25.51
2018-09-20T08:22:54.335Z,25.52
2018-09-20T08:23:54.172Z,25.56
2018-09-20T08:24:54.172Z,25.58
2018-09-20T08:25:54.177Z,25.68
2018-09-20T08:26:54.054Z,25.63
2018-09-20T08:27:54.103Z,25.58
2018-09-20T08:28:54.051Z,25.67
2018-09-20T08:29:53.933Z,25.49
2018-09-20T08:30:53.934Z,25.36
2018-09-20T08:31:53.931Z,25.36
2018-09-20T08:32:53.811Z,25.54
2018-09-20T08:33:53.812Z,25.59
2018-09-20T08:34:53.811Z,25.51
2018-09-20T08:35:53.692Z,25.56
2018-09-20T08:36:53.690Z,25.59
2018-09-20T08:37:53.689Z,25.67
2018-09-20T08:38:53.573Z,25.68
2018-09-20T08:39:53.569Z,25.66
2018-09-20T08:40:53.570Z,25.68
2018-09-20T08:41:53.531Z,25.70
2018-09-20T08:42:53.448Z,25.76
2018-09-20T08:43:53.452Z,25.73
2018-09-20T08:44:53.409Z,25.76
2018-09-20T08:45:53.327Z,25.78
2018-09-20T08:46:53.329Z,25.89
2018-09-20T08:47:53.328Z,25.88
2018-09-20T08:48:53.213Z,25.89
2018-09-20T08:49:53.208Z,26.03
2018-09-20T08:50:53.238Z,26.03
2018-09-20T08:51:53.086Z,26.15
2018-09-20T08:52:53.085Z,26.13
2018-09-20T08:53:53.093Z,26.24
2018-09-20T08:54:52.966Z,26.34
2018-09-20T08:55:52.965Z,26.45
2018-09-20T08:56:53.037Z,26.39
2018-09-20T08:57:52.844Z,26.45
2018-09-20T08:58:52.848Z,26.46
2018-09-20T08:59:52.844Z,26.53
2018-09-20T09:00:52.730Z,26.61
2018-09-20T09:01:52.725Z,26.67
2018-09-20T09:02:52.729Z,26.76
2018-09-20T09:03:52.603Z,26.79
2018-09-20T09:04:52.607Z,26.71
2018-09-20T09:05:52.602Z,26.83
2018-09-20T09:06:52.482Z,26.86
2018-09-20T09:07:52.482Z,26.82
2018-09-20T09:08:52.484Z,26.93
2018-09-20T09:09:52.484Z,26.97
2018-09-20T09:10:52.409Z,26.98
2018-09-20T09:11:52.365Z,26.96
2018-09-20T09:12:57.410Z,27.01
2018-09-20T09:13:52.242Z,27.03
2018-09-20T09:14:52.244Z,27.05
2018-09-20T09:15:52.239Z,27.07
2018-09-20T09:16:52.121Z,27.00
2018-09-20T09:17:52.153Z,27.11
2018-09-20T09:18:52.120Z,27.10
2018-09-20T09:19:51.999Z,27.16
2018-09-20T09:20:51.997Z,27.18
2018-09-20T09:21:51.997Z,27.20
2018-09-20T09:22:51.878Z,27.16
2018-09-20T09:23:51.877Z,27.22
2018-09-20T09:24:51.882Z,27.18
2018-09-20T09:25:51.764Z,27.28
2018-09-20T09:26:51.758Z,27.25
2018-09-20T09:27:51.760Z,27.33
2018-09-20T09:28:51.722Z,27.34
2018-09-20T09:29:51.636Z,27.45
2018-09-20T09:30:51.640Z,27.45
2018-09-20T09:31:51.639Z,27.47
2018-09-20T09:32:51.597Z,27.48
2018-09-20T09:33:51.516Z,27.47
2018-09-20T09:34:51.514Z,27.48
2018-09-20T09:35:51.480Z,27.60
2018-09-20T09:36:51.517Z,27.63
2018-09-20T09:37:51.402Z,27.71
2018-09-20T09:38:51.280Z,27.61
2018-09-20T09:39:51.274Z,27.44
2018-09-20T09:40:51.274Z,27.47
2018-09-20T09:41:51.158Z,27.48
2018-09-20T09:42:51.155Z,27.60
2018-09-20T09:43:51.153Z,27.60
2018-09-20T09:44:51.034Z,27.71
2018-09-20T09:45:51.031Z,27.68
2018-09-20T09:46:51.034Z,27.57
2018-09-20T09:47:50.994Z,27.64
2018-09-20T09:48:50.914Z,27.60
2018-09-20T09:49:50.914Z,27.60
2018-09-20T09:50:50.915Z,27.66
2018-09-20T09:51:51.154Z,27.61
2018-09-20T09:52:50.790Z,27.64
2018-09-20T09:53:50.790Z,27.60
2018-09-20T09:54:50.717Z,27.47
2018-09-20T09:55:50.672Z,27.60
2018-09-20T09:56:50.674Z,27.45
2018-09-20T09:57:50.553Z,27.52
2018-09-20T09:58:50.549Z,27.48
2018-09-20T09:59:50.569Z,27.43
2018-09-20T10:00:50.434Z,27.44
2018-09-20T10:01:50.436Z,27.67
2018-09-20T10:02:50.442Z,27.64
2018-09-20T10:03:50.311Z,27.61
2018-09-20T10:04:50.307Z,27.68
2018-09-20T10:05:50.306Z,27.76
2018-09-20T10:06:50.312Z,27.75
2018-09-20T10:07:50.189Z,27.76
2018-09-20T10:08:50.543Z,27.83
2018-09-20T10:09:50.186Z,27.91
2018-09-20T10:10:50.066Z,28.03
2018-09-20T10:11:50.069Z,28.03
2018-09-20T10:12:50.067Z,28.04
2018-09-20T10:13:50.013Z,28.08
2018-09-20T10:14:49.946Z,27.98
2018-09-20T10:15:49.945Z,27.98
2018-09-20T10:16:49.826Z,28.06
2018-09-20T10:17:49.825Z,28.10
2018-09-20T10:18:49.827Z,28.12
2018-09-20T10:19:49.733Z,28.03
2018-09-20T10:20:49.705Z,28.08
2018-09-20T10:21:49.704Z,27.93
2018-09-20T10:22:49.589Z,27.97
2018-09-20T10:23:49.615Z,27.95
2018-09-20T10:24:49.583Z,27.95
2018-09-20T10:25:49.597Z,27.91
2018-09-20T10:26:49.465Z,27.90
2018-09-20T10:27:49.463Z,27.98
2018-09-20T10:28:49.465Z,27.85
2018-09-20T10:29:49.342Z,27.90
2018-09-20T10:30:49.343Z,27.86
2018-09-20T10:31:49.345Z,27.93
2018-09-20T10:32:49.221Z,27.83
2018-09-20T10:33:49.712Z,27.88
2018-09-20T10:34:49.223Z,27.94
2018-09-20T10:35:49.104Z,27.88
2018-09-20T10:36:49.425Z,28.08
2018-09-20T10:37:49.100Z,28.12
2018-09-20T10:38:48.983Z,28.08
2018-09-20T10:39:48.981Z,28.03
2018-09-20T10:40:48.982Z,28.15
2018-09-20T10:41:48.860Z,28.06
2018-09-20T10:42:48.881Z,28.00
2018-09-20T10:43:48.864Z,27.93
2018-09-20T10:44:48.862Z,27.95
2018-09-20T10:45:48.742Z,27.88
2018-09-20T10:46:48.737Z,27.93
2018-09-20T10:47:48.739Z,27.90
2018-09-20T10:48:48.618Z,27.91
2018-09-20T10:49:48.618Z,27.85
2018-09-20T10:50:48.618Z,27.81
2018-09-20T10:51:48.498Z,27.67
2018-09-20T10:52:48.498Z,27.61
2018-09-20T10:53:48.496Z,27.61
2018-09-20T10:54:48.380Z,27.60
2018-09-20T10:55:48.376Z,27.63
2018-09-20T10:56:48.375Z,27.61
2018-09-20T10:57:48.260Z,27.66
2018-09-20T10:58:48.255Z,27.67
2018-09-20T10:59:48.257Z,27.71
2018-09-20T11:00:48.219Z,27.72
2018-09-20T11:01:48.135Z,27.76
2018-09-20T11:02:48.158Z,27.67
2018-09-20T11:03:48.138Z,27.72
2018-09-20T11:04:48.015Z,27.73
2018-09-20T11:05:48.015Z,27.72
2018-09-20T11:06:48.018Z,27.72
2018-09-20T11:07:47.895Z,27.72
2018-09-20T11:08:47.896Z,27.72
2018-09-20T11:09:47.893Z,27.88
2018-09-20T11:10:47.827Z,27.85
2018-09-20T11:11:47.777Z,27.88
2018-09-20T11:12:47.771Z,27.88
2018-09-20T11:13:47.652Z,27.93
2018-09-20T11:14:47.652Z,27.90
2018-09-20T11:15:47.653Z,27.98
2018-09-20T11:16:47.535Z,28.03
2018-09-20T11:17:47.534Z,27.98
2018-09-20T11:18:47.531Z,28.12
2018-09-20T11:19:47.527Z,28.15
2018-09-20T11:20:47.416Z,28.19
2018-09-20T11:21:47.414Z,28.22
2018-09-20T11:22:47.410Z,28.18
2018-09-20T11:23:47.291Z,28.22
2018-09-20T11:24:47.290Z,28.04
2018-09-20T11:25:47.365Z,28.15
2018-09-20T11:26:47.170Z,28.15
2018-09-20T11:27:47.178Z,28.15
2018-09-20T11:28:47.169Z,28.20
2018-09-20T11:29:47.049Z,28.22
2018-09-20T11:30:47.053Z,28.22
2018-09-20T11:31:47.049Z,28.23
2018-09-20T11:32:46.932Z,28.22
2018-09-20T11:33:46.929Z,28.18
2018-09-20T11:34:46.941Z,28.18
2018-09-20T11:35:46.808Z,28.16
2018-09-20T11:36:46.806Z,28.25
2018-09-20T11:37:46.807Z,28.31
2018-09-20T11:38:46.809Z,28.33
2018-09-20T11:39:46.686Z,28.33
2018-09-20T11:40:46.687Z,28.41
2018-09-20T11:41:46.691Z,28.41
2018-09-20T11:42:46.566Z,28.47
2018-09-20T11:43:46.566Z,28.50
2018-09-20T11:44:46.564Z,28.53
2018-09-20T11:45:46.445Z,28.55
2018-09-20T11:46:46.505Z,28.52
2018-09-20T11:47:46.444Z,28.49
2018-09-20T11:48:46.324Z,28.53
2018-09-20T11:49:46.325Z,28.47
2018-09-20T11:50:46.324Z,28.43
2018-09-20T11:51:46.206Z,28.46
2018-09-20T11:52:46.204Z,28.47
2018-09-20T11:53:46.214Z,28.50
2018-09-20T11:54:46.208Z,28.38
2018-09-20T11:55:46.084Z,28.41
2018-09-20T11:56:46.084Z,28.56
2018-09-20T11:57:46.085Z,28.55
2018-09-20T11:58:45.964Z,28.53
2018-09-20T11:59:45.966Z,28.64
2018-09-20T12:00:45.962Z,28.57
2018-09-20T12:01:45.899Z,28.75
2018-09-20T12:02:45.841Z,28.83
2018-09-20T12:03:45.851Z,29.00
2018-09-20T12:04:45.725Z,29.12
2018-09-20T12:05:45.721Z,29.59
2018-09-20T12:06:45.724Z,30.03
2018-09-20T12:07:45.682Z,30.06
2018-09-20T12:08:45.602Z,29.86
2018-09-20T12:09:45.602Z,30.24
2018-09-20T12:10:45.599Z,30.69
2018-09-20T12:11:45.481Z,31.13
2018-09-20T12:12:45.478Z,31.81
2018-09-20T12:13:45.479Z,31.95
2018-09-20T12:14:45.359Z,31.85
2018-09-20T12:15:45.357Z,32.12
2018-09-20T12:16:45.358Z,32.73
2018-09-20T12:17:45.237Z,32.98
2018-09-20T12:18:45.240Z,33.28
2018-09-20T12:19:45.238Z,33.50
2018-09-20T12:20:45.116Z,33.61
2018-09-20T12:21:45.116Z,33.98
2018-09-20T12:22:45.118Z,34.14
2018-09-20T12:23:45.120Z,34.35
2018-09-20T12:24:44.995Z,34.41
2018-09-20T12:25:45.023Z,34.35
2018-09-20T12:26:44.995Z,34.63
2018-09-20T12:27:44.876Z,34.82
2018-09-20T12:28:44.877Z,34.89
2018-09-20T12:29:44.875Z,34.63
2018-09-20T12:30:44.755Z,34.58
2018-09-20T12:31:44.768Z,34.07
2018-09-20T12:32:44.784Z,33.79
2018-09-20T12:33:44.756Z,33.22
2018-09-20T12:34:44.640Z,32.72
2018-09-20T12:35:44.776Z,32.20
2018-09-20T12:36:44.637Z,31.89
2018-09-20T12:37:44.515Z,31.57
2018-09-20T12:38:44.551Z,31.35
2018-09-20T12:39:44.512Z,31.17
2018-09-20T12:40:44.474Z,30.92
2018-09-20T12:41:44.393Z,30.77
2018-09-20T12:42:44.399Z,30.56
2018-09-20T12:43:44.393Z,30.40
2018-09-20T12:44:44.271Z,30.24
2018-09-20T12:45:44.275Z,30.26
2018-09-20T12:46:44.273Z,30.05
2018-09-20T12:47:44.152Z,29.98
2018-09-20T12:48:44.157Z,30.01
2018-09-20T12:49:44.152Z,29.98
2018-09-20T12:50:44.031Z,29.92
2018-09-20T12:51:44.032Z,29.84
2018-09-20T12:52:44.033Z,29.73